createdAt,value
2018-10-12T00:02:25.337Z,7.80
2018-10-12T00:04:52.907Z,7.37
2018-10-12T00:07:20.497Z,6.80
2018-10-12T00:09:48.102Z,6.80
2018-10-12T00:12:15.662Z,6.77
2018-10-12T00:14:43.233Z,6.40
2018-10-12T00:17:10.827Z,8.35
2018-10-12T00:19:39.158Z,7.07
2018-10-12T00:22:06.765Z,7.07
2018-10-12T00:24:35.094Z,7.00
2018-10-12T00:27:02.656Z,6.97
2018-10-12T00:29:30.255Z,7.13
2018-10-12T00:31:58.690Z,6.80
2018-10-12T00:34:26.254Z,7.27
2018-10-12T00:36:53.845Z,7.20
2018-10-12T00:39:21.412Z,6.70
2018-10-12T00:41:49.025Z,7.17
2018-10-12T00:44:16.596Z,6.50
2018-10-12T00:46:44.169Z,7.50
2018-10-12T00:49:11.766Z,6.83
2018-10-12T00:51:40.093Z,6.70
2018-10-12T00:54:07.657Z,6.83
2018-10-12T00:56:35.258Z,7.07
2018-10-12T00:59:02.832Z,6.80
2018-10-12T01:01:31.158Z,6.30
2018-10-12T01:03:59.470Z,6.90
2018-10-12T01:06:27.033Z,7.50
2018-10-12T01:08:54.608Z,6.63
2018-10-12T01:11:22.973Z,7.50
2018-10-12T01:13:50.534Z,6.97
2018-10-12T01:16:18.094Z,6.60
2018-10-12T01:18:45.691Z,6.47
2018-10-12T01:21:13.248Z,6.60
2018-10-12T01:23:41.590Z,6.67
2018-10-12T01:26:09.701Z,6.70
2018-10-12T01:28:37.263Z,6.60
2018-10-12T01:31:05.599Z,6.27
2018-10-12T01:33:33.198Z,7.30
2018-10-12T01:36:00.768Z,6.63
2018-10-12T01:38:28.320Z,7.20
2018-10-12T01:40:55.912Z,7.00
2018-10-12T01:43:23.484Z,7.00
2018-10-12T01:45:51.046Z,7.63
2018-10-12T01:48:19.132Z,7.47
2018-10-12T01:50:46.702Z,6.37
2018-10-12T01:53:14.284Z,6.83
2018-10-12T01:55:41.891Z,8.25
2018-10-12T01:58:09.475Z,6.97
2018-10-12T02:00:37.048Z,7.10
2018-10-12T02:03:04.638Z,6.93
2018-10-12T02:05:32.970Z,8.50
2018-10-12T02:08:00.539Z,6.97
2018-10-12T02:10:28.121Z,6.43
2018-10-12T02:12:55.683Z,6.53
2018-10-12T02:15:23.320Z,6.90
2018-10-12T02:17:50.881Z,8.00
2018-10-12T02:20:18.451Z,6.53
2018-10-12T02:22:46.049Z,6.33
2018-10-12T02:25:14.374Z,6.97
2018-10-12T02:27:41.940Z,7.07
2018-10-12T02:30:09.534Z,7.03
2018-10-12T02:32:37.097Z,7.33
2018-10-12T02:35:04.676Z,7.90
2018-10-12T02:37:33.054Z,7.07
2018-10-12T02:40:01.373Z,7.30
2018-10-12T02:42:28.938Z,7.07
2018-10-12T02:44:56.529Z,7.20
2018-10-12T02:47:24.108Z,7.50
2018-10-12T02:49:51.671Z,8.30
2018-10-12T02:52:19.267Z,7.17
2018-10-12T02:54:46.824Z,6.80
2018-10-12T02:57:14.728Z,6.90
2018-10-12T02:59:42.336Z,6.97
2018-10-12T03:02:10.694Z,6.63
2018-10-12T03:04:38.258Z,6.87
2018-10-12T03:07:05.850Z,6.60
2018-10-12T03:09:33.656Z,8.05
2018-10-12T03:12:01.223Z,7.00
2018-10-12T03:14:28.828Z,7.63
2018-10-12T03:16:57.392Z,7.10
2018-10-12T03:19:24.973Z,6.37
2018-10-12T03:21:53.325Z,6.40
2018-10-12T03:24:20.896Z,6.13
2018-10-12T03:26:48.976Z,6.77
2018-10-12T03:29:16.533Z,8.10
2018-10-12T03:31:44.097Z,6.80
2018-10-12T03:34:11.690Z,6.83
2018-10-12T03:36:39.256Z,6.77
2018-10-12T03:39:06.838Z,6.80
2018-10-12T03:41:34.447Z,6.70
2018-10-12T03:44:02.006Z,7.23
2018-10-12T03:46:29.579Z,6.50
2018-10-12T03:48:57.190Z,6.87
2018-10-12T03:51:25.163Z,6.17
2018-10-12T03:53:52.720Z,6.70
2018-10-12T03:56:20.327Z,6.57
2018-10-12T03:58:47.946Z,7.03
2018-10-12T04:01:16.238Z,6.13
2018-10-12T04:03:43.846Z,6.97
2018-10-12T04:06:12.180Z,7.95
2018-10-12T04:08:39.744Z,7.13
2018-10-12T04:11:08.120Z,6.47
2018-10-12T04:13:35.682Z,6.80
2018-10-12T04:16:03.248Z,8.35
2018-10-12T04:18:30.847Z,7.30
2018-10-12T04:20:59.178Z,7.33
2018-10-12T04:23:26.740Z,7.50
2018-10-12T04:25:54.325Z,8.43
2018-10-12T04:28:21.886Z,8.63
2018-10-12T04:30:49.574Z,9.93
2018-10-12T04:33:17.116Z,7.87
2018-10-12T04:35:44.681Z,9.80
2018-10-12T04:38:12.301Z,7.97
2018-10-12T04:40:39.855Z,7.90
2018-10-12T04:43:07.422Z,7.73
2018-10-12T04:45:35.096Z,7.30
2018-10-12T04:48:02.666Z,7.70
2018-10-12T04:50:30.228Z,7.33
2018-10-12T04:52:57.848Z,7.93
2018-10-12T04:55:25.417Z,8.10
2018-10-12T04:57:52.986Z,7.80
2018-10-12T05:00:20.602Z,7.23
2018-10-12T05:02:48.936Z,6.93
2018-10-12T05:05:16.500Z,6.67
2018-10-12T05:07:44.161Z,8.33
2018-10-12T05:10:11.665Z,7.60
2018-10-12T05:12:40.632Z,7.33
2018-10-12T05:15:08.200Z,6.43
2018-10-12T05:17:35.757Z,6.50
2018-10-12T05:20:03.396Z,6.53
2018-10-12T05:22:30.960Z,6.77
2018-10-12T05:24:58.539Z,6.90
2018-10-12T05:27:26.183Z,7.17
2018-10-12T05:29:53.746Z,5.87
2018-10-12T05:32:22.293Z,6.47
2018-10-12T05:34:49.886Z,6.30
2018-10-12T05:37:18.485Z,7.27
2018-10-12T05:39:46.467Z,7.10
2018-10-12T05:42:14.035Z,7.43
2018-10-12T05:44:41.593Z,6.43
2018-10-12T05:47:09.767Z,6.90
2018-10-12T05:49:46.382Z,6.73
2018-10-12T05:52:14.728Z,7.07
2018-10-12T05:54:42.321Z,6.30
2018-10-12T05:57:10.653Z,8.38
2018-10-12T05:59:38.306Z,7.37
2018-10-12T06:02:05.878Z,7.37
2018-10-12T06:04:33.454Z,8.50
2018-10-12T06:07:01.115Z,10.15
2018-10-12T06:09:28.741Z,11.32
2018-10-12T06:11:56.244Z,8.70
2018-10-12T06:14:23.862Z,8.43
2018-10-12T06:16:51.431Z,9.15
2018-10-12T06:19:18.991Z,8.10
2018-10-12T06:21:46.762Z,8.50
2018-10-12T06:24:14.176Z,7.17
2018-10-12T06:26:41.747Z,6.97
2018-10-12T06:29:09.766Z,7.23
2018-10-12T06:31:37.330Z,7.57
2018-10-12T06:34:04.939Z,7.10
2018-10-12T06:36:32.544Z,7.67
2018-10-12T06:39:00.111Z,7.70
2018-10-12T06:41:28.334Z,7.57
2018-10-12T06:43:55.796Z,9.85
2018-10-12T06:46:23.387Z,8.07
2018-10-12T06:48:50.947Z,8.40
2018-10-12T06:51:18.531Z,8.37
2018-10-12T06:53:46.130Z,8.03
2018-10-12T06:56:14.177Z,7.77
2018-10-12T06:58:42.852Z,7.40
2018-10-12T07:01:10.424Z,7.33
2018-10-12T07:03:38.070Z,7.77
2018-10-12T07:06:05.619Z,7.30
2018-10-12T07:08:33.189Z,8.00
2018-10-12T07:11:00.834Z,8.80
2018-10-12T07:13:28.408Z,10.37
2018-10-12T07:15:55.971Z,7.83
2018-10-12T07:18:23.606Z,10.20
2018-10-12T07:20:51.174Z,8.20
2018-10-12T07:23:18.738Z,8.83
2018-10-12T07:25:46.364Z,9.13
2018-10-12T07:28:13.920Z,8.40
2018-10-12T07:30:41.485Z,9.10
2018-10-12T07:33:09.875Z,9.23
2018-10-12T07:35:38.212Z,9.20
2018-10-12T07:38:05.780Z,9.17
2018-10-12T07:40:33.397Z,9.03
2018-10-12T07:43:00.954Z,9.63
2018-10-12T07:45:28.519Z,9.07
2018-10-12T07:47:56.164Z,8.70
2018-10-12T07:50:23.699Z,8.73
2018-10-12T07:52:52.155Z,9.13
2018-10-12T07:55:19.719Z,9.03
2018-10-12T07:57:47.286Z,8.33
2018-10-12T08:00:14.993Z,8.23
2018-10-12T08:02:43.227Z,9.53
2018-10-12T08:05:10.791Z,8.47
2018-10-12T08:07:38.406Z,8.93
2018-10-12T08:10:05.969Z,8.10
2018-10-12T08:12:33.534Z,8.27
2018-10-12T08:15:01.159Z,9.07
2018-10-12T08:17:28.719Z,10.53
2018-10-12T08:19:56.290Z,10.13
2018-10-12T08:22:25.584Z,8.47
2018-10-12T08:24:53.155Z,8.90
2018-10-12T08:27:21.489Z,7.03
2018-10-12T08:29:49.139Z,7.87
2018-10-12T08:32:17.022Z,7.37
2018-10-12T08:34:44.615Z,7.87
2018-10-12T08:37:12.236Z,7.20
2018-10-12T08:39:39.788Z,7.00
2018-10-12T08:42:07.354Z,7.50
2018-10-12T08:44:34.942Z,7.73
2018-10-12T08:47:02.511Z,7.17
2018-10-12T08:49:30.117Z,7.03
2018-10-12T08:51:57.751Z,7.47
2018-10-12T08:54:25.317Z,7.93
2018-10-12T08:56:53.705Z,6.97
2018-10-12T08:59:22.047Z,6.20
2018-10-12T09:01:49.616Z,4.57
2018-10-12T09:04:17.239Z,4.30
2018-10-12T09:06:44.805Z,4.97
2018-10-12T09:09:12.369Z,4.27
2018-10-12T09:11:40.018Z,4.03
2018-10-12T09:14:07.588Z,3.73
2018-10-12T09:16:35.147Z,4.28
2018-10-12T09:19:02.759Z,3.60
2018-10-12T09:21:30.343Z,3.93
2018-10-12T09:23:58.686Z,4.07
2018-10-12T09:26:26.332Z,3.60
2018-10-12T09:28:53.924Z,3.70
2018-10-12T09:31:21.464Z,3.57
2018-10-12T09:33:49.647Z,3.57
2018-10-12T09:36:17.207Z,3.50
2018-10-12T09:38:44.772Z,3.73
2018-10-12T09:41:12.388Z,3.60
2018-10-12T09:43:39.967Z,3.57
2018-10-12T09:46:07.527Z,3.60
2018-10-12T09:48:35.138Z,3.87
2018-10-12T09:51:02.705Z,3.00
2018-10-12T09:53:31.040Z,3.20
2018-10-12T09:55:58.712Z,3.53
2018-10-12T09:58:26.987Z,3.30
2018-10-12T10:00:54.545Z,3.33
2018-10-12T10:03:22.144Z,2.80
2018-10-12T10:05:49.708Z,3.43
2018-10-12T10:08:17.409Z,3.30
2018-10-12T10:10:44.869Z,3.40
2018-10-12T10:13:12.434Z,3.40
2018-10-12T10:15:40.339Z,3.00
2018-10-12T10:18:07.898Z,3.30
2018-10-12T10:20:35.457Z,3.00
2018-10-12T10:23:03.048Z,3.03
2018-10-12T10:25:31.369Z,3.07
2018-10-12T10:27:59.772Z,3.30
2018-10-12T10:30:27.325Z,2.97
2018-10-12T10:32:54.891Z,3.60
2018-10-12T10:35:22.496Z,3.73
2018-10-12T10:37:50.052Z,3.27
2018-10-12T10:40:19.010Z,3.27
2018-10-12T10:42:46.575Z,2.97
2018-10-12T10:45:14.135Z,2.70
2018-10-12T10:47:41.777Z,3.00
2018-10-12T10:50:09.356Z,3.30
2018-10-12T10:52:36.909Z,3.23
2018-10-12T10:55:04.566Z,3.00
2018-10-12T10:57:32.128Z,3.17
2018-10-12T10:59:59.720Z,3.07
2018-10-12T11:02:27.349Z,3.47
2018-10-12T11:04:54.910Z,3.35
2018-10-12T11:07:22.466Z,2.93
2018-10-12T11:09:50.115Z,2.90
2018-10-12T11:12:18.037Z,2.57
2018-10-12T11:14:45.573Z,3.00
2018-10-12T11:17:13.188Z,2.80
2018-10-12T11:19:43.570Z,2.97
2018-10-12T11:22:11.030Z,3.20
2018-10-12T11:24:38.724Z,2.57
2018-10-12T11:27:06.208Z,3.20
2018-10-12T11:29:33.771Z,3.08
2018-10-12T11:32:01.363Z,3.07
2018-10-12T11:34:28.922Z,3.20
2018-10-12T11:36:56.537Z,3.20
2018-10-12T11:39:24.862Z,3.23
2018-10-12T11:41:52.423Z,3.30
2018-10-12T11:44:20.518Z,3.07
2018-10-12T11:46:48.078Z,3.30
2018-10-12T11:49:15.646Z,3.53
2018-10-12T11:51:43.490Z,3.10
2018-10-12T11:54:11.063Z,3.10
2018-10-12T11:56:39.026Z,2.57
2018-10-12T11:59:06.667Z,2.80
2018-10-12T12:01:34.229Z,2.57
2018-10-12T12:04:01.795Z,2.80
2018-10-12T12:06:29.678Z,3.07
2018-10-12T12:08:57.240Z,2.70
2018-10-12T12:11:25.830Z,2.30
2018-10-12T12:13:53.525Z,2.47
2018-10-12T12:16:20.952Z,2.57
2018-10-12T12:18:49.443Z,2.67
2018-10-12T12:21:17.008Z,2.77
2018-10-12T12:23:44.567Z,3.10
2018-10-12T12:26:12.178Z,2.70
2018-10-12T12:28:41.206Z,2.40
2018-10-12T12:31:07.301Z,3.00
2018-10-12T12:33:35.425Z,2.73
2018-10-12T12:36:03.104Z,2.47
2018-10-12T12:38:30.551Z,2.37
2018-10-12T12:40:58.177Z,2.67
2018-10-12T12:43:25.741Z,2.40
2018-10-12T12:45:53.312Z,2.83
2018-10-12T12:48:21.151Z,2.33
2018-10-12T12:50:48.453Z,2.53
2018-10-12T12:53:16.076Z,2.47
2018-10-12T12:55:43.638Z,2.57
2018-10-12T12:58:11.198Z,2.70
2018-10-12T13:00:38.892Z,2.70
2018-10-12T13:03:06.422Z,1.90
2018-10-12T13:05:33.982Z,1.90
2018-10-12T13:08:01.600Z,2.50
2018-10-12T13:10:29.156Z,2.20
2018-10-12T13:12:56.716Z,2.70
2018-10-12T13:15:24.300Z,2.80
2018-10-12T13:17:52.630Z,2.20
2018-10-12T13:20:20.284Z,2.20
2018-10-12T13:22:47.849Z,2.53
2018-10-12T13:25:15.806Z,2.87
2018-10-12T13:27:43.417Z,2.83
2018-10-12T13:30:10.978Z,2.23
2018-10-12T13:32:38.542Z,2.27
2018-10-12T13:35:06.194Z,2.53
2018-10-12T13:37:33.793Z,2.53
2018-10-12T13:40:01.385Z,2.47
2018-10-12T13:42:28.901Z,2.45
2018-10-12T13:44:57.234Z,2.40
2018-10-12T13:47:24.853Z,2.20
2018-10-12T13:49:53.184Z,2.50
2018-10-12T13:52:20.745Z,2.03
2018-10-12T13:54:48.356Z,2.27
2018-10-12T13:57:16.691Z,2.23
2018-10-12T13:59:44.257Z,2.00
2018-10-12T14:02:11.835Z,1.97
2018-10-12T14:04:39.393Z,2.05
2018-10-12T14:07:07.015Z,2.07
2018-10-12T14:09:34.579Z,2.20
2018-10-12T14:12:02.137Z,2.20
2018-10-12T14:14:29.759Z,2.07
2018-10-12T14:16:58.090Z,2.03
2018-10-12T14:19:25.799Z,2.10
2018-10-12T14:21:53.235Z,2.00
2018-10-12T14:24:20.792Z,2.50
2018-10-12T14:26:48.453Z,2.07
2018-10-12T14:29:16.728Z,2.10
2018-10-12T14:31:44.380Z,1.97
2018-10-12T14:34:12.478Z,2.00
2018-10-12T14:36:40.048Z,2.28
2018-10-12T14:39:07.605Z,2.10
2018-10-12T14:41:35.770Z,1.83
2018-10-12T14:44:03.490Z,2.42
2018-10-12T14:46:30.890Z,2.10
2018-10-12T14:48:58.972Z,1.93
2018-10-12T14:51:31.658Z,1.93
2018-10-12T14:53:59.123Z,1.90
2018-10-12T14:56:27.484Z,1.70
2018-10-12T14:58:55.081Z,2.50
2018-10-12T15:01:22.633Z,2.33
2018-10-12T15:03:51.878Z,1.90
2018-10-12T15:06:19.437Z,2.20
2018-10-12T15:08:47.003Z,2.33
2018-10-12T15:11:14.591Z,2.40
2018-10-12T15:13:42.154Z,2.20
2018-10-12T15:16:09.816Z,1.97
2018-10-12T15:18:37.375Z,2.17
2018-10-12T15:21:05.042Z,2.30
2018-10-12T15:23:32.529Z,2.15
2018-10-12T15:26:00.865Z,2.13
2018-10-12T15:28:28.506Z,1.77
2018-10-12T15:30:56.070Z,2.20
2018-10-12T15:33:23.628Z,2.03
2018-10-12T15:35:52.184Z,2.30
2018-10-12T15:38:20.538Z,2.03
2018-10-12T15:40:48.102Z,2.10
2018-10-12T15:43:15.794Z,2.35
2018-10-12T15:45:43.276Z,2.15
2018-10-12T15:48:10.835Z,2.00
2018-10-12T15:50:38.422Z,2.00
2018-10-12T15:53:05.989Z,3.20
2018-10-12T15:55:33.652Z,3.10
2018-10-12T15:58:01.214Z,2.73
2018-10-12T16:00:30.351Z,2.50
2018-10-12T16:02:58.716Z,2.10
2018-10-12T16:05:26.549Z,2.07
2018-10-12T16:07:54.202Z,2.17
2018-10-12T16:10:21.771Z,2.47
2018-10-12T16:12:49.345Z,1.77
2018-10-12T16:15:17.200Z,2.83
2018-10-12T16:17:44.766Z,2.45
2018-10-12T16:20:12.385Z,2.27
2018-10-12T16:22:39.992Z,2.47
2018-10-12T16:25:44.124Z,2.40
2018-10-12T16:28:11.739Z,2.83
2018-10-12T16:30:39.317Z,2.53
2018-10-12T16:33:06.881Z,2.87
2018-10-12T16:35:48.312Z,2.77
2018-10-12T16:38:15.814Z,3.17
2018-10-12T16:40:43.377Z,3.20
2018-10-12T16:43:10.967Z,2.80
2018-10-12T16:45:38.537Z,2.50
2018-10-12T16:48:07.004Z,2.60
2018-10-12T16:50:34.571Z,3.27
2018-10-12T16:53:02.156Z,2.60
2018-10-12T16:55:29.757Z,2.60
2018-10-12T16:57:57.380Z,3.00
2018-10-12T17:00:25.840Z,2.50
2018-10-12T17:02:53.399Z,2.13
2018-10-12T17:05:20.970Z,2.47
2018-10-12T17:07:48.588Z,2.40
2018-10-12T17:10:16.170Z,2.90
2018-10-12T17:12:43.803Z,2.47
2018-10-12T17:15:12.748Z,2.60
2018-10-12T17:17:40.306Z,2.50
2018-10-12T17:20:09.311Z,3.00
2018-10-12T17:22:36.880Z,2.77
2018-10-12T17:25:04.451Z,2.93
2018-10-12T17:27:32.039Z,3.37
2018-10-12T17:29:59.603Z,3.03
2018-10-12T17:32:27.215Z,3.17
2018-10-12T17:34:54.772Z,3.30
2018-10-12T17:37:22.335Z,4.30
2018-10-12T17:39:49.973Z,5.07
2018-10-12T17:42:17.515Z,5.30
2018-10-12T17:44:45.130Z,4.70
2018-10-12T17:47:13.100Z,10.63
2018-10-12T17:49:40.801Z,8.73
2018-10-12T17:52:08.369Z,7.10
2018-10-12T17:54:35.956Z,7.70
2018-10-12T17:57:03.580Z,6.20
2018-10-12T17:59:31.111Z,6.40
2018-10-12T18:01:58.765Z,6.60
2018-10-12T18:04:26.334Z,4.93
2018-10-12T18:06:53.922Z,4.50
2018-10-12T18:09:21.507Z,4.43
2018-10-12T18:11:49.077Z,3.87
2018-10-12T18:14:16.737Z,3.77
2018-10-12T18:16:44.252Z,4.00
2018-10-12T18:19:11.811Z,4.43
2018-10-12T18:21:39.396Z,4.68
2018-10-12T18:24:06.968Z,4.13
2018-10-12T18:26:34.919Z,3.90
2018-10-12T18:29:02.472Z,4.30
2018-10-12T18:31:30.041Z,3.53
2018-10-12T18:33:59.378Z,3.93
2018-10-12T18:36:26.952Z,3.93
2018-10-12T18:38:54.508Z,4.63
2018-10-12T18:41:22.087Z,4.90
2018-10-12T18:43:49.648Z,4.37
2018-10-12T18:46:17.598Z,4.53
2018-10-12T18:48:45.169Z,4.60
2018-10-12T18:51:12.815Z,4.00
2018-10-12T18:53:40.347Z,4.03
2018-10-12T18:56:08.689Z,4.23
2018-10-12T18:58:36.872Z,4.80
2018-10-12T19:01:04.443Z,4.53
2018-10-12T19:03:32.008Z,3.87
2018-10-12T19:06:00.058Z,4.47
2018-10-12T19:08:27.621Z,3.93
2018-10-12T19:10:55.189Z,3.80
2018-10-12T19:13:23.309Z,4.50
2018-10-12T19:15:50.887Z,8.07
2018-10-12T19:18:18.455Z,10.30
2018-10-12T19:20:46.742Z,5.17
2018-10-12T19:23:14.302Z,5.37
2018-10-12T19:25:41.885Z,5.20
2018-10-12T19:28:09.510Z,5.80
2018-10-12T19:30:37.072Z,5.77
2018-10-12T19:33:04.631Z,4.80
2018-10-12T19:35:32.258Z,5.73
2018-10-12T19:37:59.837Z,5.23
2018-10-12T19:40:27.413Z,5.20
2018-10-12T19:42:56.343Z,4.90
2018-10-12T19:45:23.905Z,5.30
2018-10-12T19:47:51.473Z,5.10
2018-10-12T19:50:19.831Z,5.23
2018-10-12T19:52:47.392Z,5.20
2018-10-12T19:55:14.944Z,5.20
2018-10-12T19:57:42.560Z,5.33
2018-10-12T20:00:10.383Z,6.30
2018-10-12T20:02:37.958Z,6.50
2018-10-12T20:05:06.634Z,6.90
2018-10-12T20:07:34.189Z,5.87
2018-10-12T20:10:01.760Z,5.37
2018-10-12T20:12:30.260Z,4.57
2018-10-12T20:14:57.818Z,5.13
2018-10-12T20:17:25.480Z,5.23
2018-10-12T20:19:54.056Z,7.22
2018-10-12T20:22:21.620Z,6.40
2018-10-12T20:24:49.189Z,6.87
2018-10-12T20:27:16.838Z,7.47
2018-10-12T20:29:44.399Z,6.83
2018-10-12T20:32:11.973Z,6.20
2018-10-12T20:34:39.847Z,6.17
2018-10-12T20:37:07.407Z,6.47
2018-10-12T20:39:34.996Z,6.00
2018-10-12T20:42:03.130Z,5.95
2018-10-12T20:44:30.699Z,5.10
2018-10-12T20:46:58.289Z,4.87
2018-10-12T20:49:25.910Z,5.23
2018-10-12T20:51:53.485Z,5.35
2018-10-12T20:54:21.053Z,5.13
2018-10-12T20:56:48.642Z,5.50
2018-10-12T20:59:16.260Z,5.40
2018-10-12T21:01:43.819Z,5.20
2018-10-12T21:04:11.394Z,5.07
2018-10-12T21:06:39.759Z,4.80
2018-10-12T21:09:09.376Z,4.63
2018-10-12T21:11:35.599Z,5.47
2018-10-12T21:14:03.211Z,4.57
2018-10-12T21:16:31.538Z,4.40
2018-10-12T21:18:59.103Z,4.40
2018-10-12T21:21:26.758Z,4.67
2018-10-12T21:23:54.323Z,6.00
2018-10-12T21:26:21.880Z,5.00
2018-10-12T21:28:50.168Z,5.07
2018-10-12T21:31:17.701Z,4.63
2018-10-12T21:33:45.275Z,5.00
2018-10-12T21:36:13.710Z,4.70
2018-10-12T21:38:41.267Z,4.90
2018-10-12T21:41:09.598Z,4.50
2018-10-12T21:43:37.268Z,4.47
2018-10-12T21:46:04.842Z,4.90
2018-10-12T21:48:32.411Z,4.20
2018-10-12T21:51:00.768Z,5.90
2018-10-12T21:53:28.339Z,4.30
2018-10-12T21:55:55.899Z,4.63
2018-10-12T21:58:24.176Z,5.00
2018-10-12T22:00:51.733Z,4.30
2018-10-12T22:03:19.321Z,5.27
2018-10-12T22:05:46.974Z,5.90
2018-10-12T22:08:14.524Z,5.30
2018-10-12T22:10:42.092Z,5.03
2018-10-12T22:13:09.694Z,5.47
2018-10-12T22:15:37.259Z,5.47
2018-10-12T22:18:05.665Z,5.30
2018-10-12T22:20:33.225Z,5.43
2018-10-12T22:23:00.790Z,4.97
2018-10-12T22:25:28.867Z,5.20
2018-10-12T22:27:56.436Z,5.37
2018-10-12T22:30:23.999Z,4.53
2018-10-12T22:32:51.635Z,4.90
2018-10-12T22:35:19.195Z,5.17
2018-10-12T22:37:46.766Z,5.17
2018-10-12T22:40:14.383Z,4.53
2018-10-12T22:42:41.953Z,4.63
2018-10-12T22:45:09.508Z,4.47
2018-10-12T22:47:38.702Z,5.30
2018-10-12T22:50:07.045Z,5.93
2018-10-12T22:52:34.614Z,4.47
2018-10-12T22:55:02.221Z,4.53
2018-10-12T22:57:30.559Z,5.57
2018-10-12T22:59:58.119Z,5.33
2018-10-12T23:02:25.730Z,5.20
2018-10-12T23:04:53.306Z,5.37
2018-10-12T23:07:20.880Z,5.60
2018-10-12T23:09:48.496Z,5.50
2018-10-12T23:12:17.245Z,5.77
2018-10-12T23:14:44.804Z,5.93
2018-10-12T23:17:12.405Z,5.17
2018-10-12T23:19:39.965Z,5.30
2018-10-12T23:22:07.542Z,6.78
2018-10-12T23:24:36.377Z,6.20
2018-10-12T23:27:03.950Z,6.50
2018-10-12T23:29:31.953Z,6.20
2018-10-12T23:32:00.804Z,7.35
2018-10-12T23:34:28.364Z,6.57
2018-10-12T23:36:55.962Z,6.53
2018-10-12T23:39:23.536Z,5.80
2018-10-12T23:41:51.101Z,5.90
2018-10-12T23:44:18.713Z,6.40
2018-10-12T23:46:46.290Z,6.63
2018-10-12T23:49:13.898Z,6.73
2018-10-12T23:51:41.511Z,8.30
2018-10-12T23:54:09.082Z,6.50
2018-10-12T23:56:36.754Z,7.65
2018-10-12T23:59:07.527Z,6.70
